sensor_id;sensor_type;location;lat;lon;timestamp;P1;durP1;ratioP1;P2;durP2;ratioP2
34639;SDS011;22600;48.186;11.526;2022-08-25T00:00:46;7.55;;;5.35;;
34639;SDS011;22600;48.186;11.526;2022-08-25T00:03:13;6.47;;;4.82;;
34639;SDS011;22600;48.186;11.526;2022-08-25T00:05:40;7.53;;;4.85;;
34639;SDS011;22600;48.186;11.526;2022-08-25T00:08:05;8.07;;;5.07;;
34639;SDS011;22600;48.186;11.526;2022-08-25T00:10:32;7.93;;;5.43;;
34639;SDS011;22600;48.186;11.526;2022-08-25T00:12:59;7.40;;;4.90;;
34639;SDS011;22600;48.186;11.526;2022-08-25T00:15:26;7.03;;;5.00;;
34639;SDS011;22600;48.186;11.526;2022-08-25T00:17:52;7.40;;;5.65;;
34639;SDS011;22600;48.186;11.526;2022-08-25T00:20:18;8.38;;;5.25;;
34639;SDS011;22600;48.186;11.526;2022-08-25T00:22:44;7.30;;;5.05;;
34639;SDS011;22600;48.186;11.526;2022-08-25T00:25:11;7.38;;;5.10;;
34639;SDS011;22600;48.186;11.526;2022-08-25T00:27:37;6.95;;;5.43;;
34639;SDS011;22600;48.186;11.526;2022-08-25T00:30:03;7.22;;;5.18;;
34639;SDS011;22600;48.186;11.526;2022-08-25T00:32:30;8.07;;;4.80;;
34639;SDS011;22600;48.186;11.526;2022-08-25T00:34:55;7.82;;;4.90;;
34639;SDS011;22600;48.186;11.526;2022-08-25T00:37:21;7.07;;;4.95;;
34639;SDS011;22600;48.186;11.526;2022-08-25T00:39:46;8.07;;;4.97;;
34639;SDS011;22600;48.186;11.526;2022-08-25T00:42:12;6.40;;;4.85;;
34639;SDS011;22600;48.186;11.526;2022-08-25T00:44:38;8.32;;;5.18;;
34639;SDS011;22600;48.186;11.526;2022-08-25T00:47:04;7.22;;;5.35;;
34639;SDS011;22600;48.186;11.526;2022-08-25T00:49:32;7.60;;;5.63;;
34639;SDS011;22600;48.186;11.526;2022-08-25T00:52:26;7.53;;;4.93;;
34639;SDS011;22600;48.186;11.526;2022-08-25T00:57:25;6.93;;;5.40;;
34639;SDS011;22600;48.186;11.526;2022-08-25T00:59:53;8.37;;;5.53;;
34639;SDS011;22600;48.186;11.526;2022-08-25T01:02:19;7.28;;;5.30;;
34639;SDS011;22600;48.186;11.526;2022-08-25T01:04:45;6.65;;;5.00;;
34639;SDS011;22600;48.186;11.526;2022-08-25T01:07:11;7.60;;;5.35;;
34639;SDS011;22600;48.186;11.526;2022-08-25T01:09:38;6.38;;;4.70;;
34639;SDS011;22600;48.186;11.526;2022-08-25T01:12:05;7.10;;;5.20;;
34639;SDS011;22600;48.186;11.526;2022-08-25T01:14:31;7.95;;;5.03;;
34639;SDS011;22600;48.186;11.526;2022-08-25T01:16:59;7.50;;;5.45;;
34639;SDS011;22600;48.186;11.526;2022-08-25T01:19:25;6.93;;;4.80;;
34639;SDS011;22600;48.186;11.526;2022-08-25T01:21:52;6.95;;;5.07;;
34639;SDS011;22600;48.186;11.526;2022-08-25T01:24:23;6.10;;;4.63;;
34639;SDS011;22600;48.186;11.526;2022-08-25T01:27:20;7.43;;;5.45;;
34639;SDS011;22600;48.186;11.526;2022-08-25T01:29:45;7.60;;;5.15;;
34639;SDS011;22600;48.186;11.526;2022-08-25T01:32:11;8.25;;;5.60;;
34639;SDS011;22600;48.186;11.526;2022-08-25T01:34:42;6.90;;;5.03;;
34639;SDS011;22600;48.186;11.526;2022-08-25T01:37:10;8.60;;;5.60;;
34639;SDS011;22600;48.186;11.526;2022-08-25T01:39:38;7.80;;;5.60;;
34639;SDS011;22600;48.186;11.526;2022-08-25T01:44:38;7.28;;;5.50;;
34639;SDS011;22600;48.186;11.526;2022-08-25T01:47:05;8.05;;;5.28;;
34639;SDS011;22600;48.186;11.526;2022-08-25T01:49:31;8.10;;;5.78;;
34639;SDS011;22600;48.186;11.526;2022-08-25T01:52:20;7.93;;;5.38;;
34639;SDS011;22600;48.186;11.526;2022-08-25T01:54:47;7.93;;;5.82;;
34639;SDS011;22600;48.186;11.526;2022-08-25T01:57:12;8.00;;;5.93;;
34639;SDS011;22600;48.186;11.526;2022-08-25T01:59:38;8.32;;;5.75;;
34639;SDS011;22600;48.186;11.526;2022-08-25T02:02:04;7.90;;;5.78;;
34639;SDS011;22600;48.186;11.526;2022-08-25T02:04:30;8.95;;;6.47;;
34639;SDS011;22600;48.186;11.526;2022-08-25T02:06:57;8.18;;;5.82;;
34639;SDS011;22600;48.186;11.526;2022-08-25T02:09:24;6.90;;;5.43;;
34639;SDS011;22600;48.186;11.526;2022-08-25T02:11:50;9.32;;;5.95;;
34639;SDS011;22600;48.186;11.526;2022-08-25T02:14:16;8.45;;;6.15;;
34639;SDS011;22600;48.186;11.526;2022-08-25T02:16:45;7.80;;;5.80;;
34639;SDS011;22600;48.186;11.526;2022-08-25T02:19:13;7.95;;;5.70;;
34639;SDS011;22600;48.186;11.526;2022-08-25T02:21:39;7.38;;;5.53;;
34639;SDS011;22600;48.186;11.526;2022-08-25T02:24:05;7.47;;;5.72;;
34639;SDS011;22600;48.186;11.526;2022-08-25T02:26:32;8.27;;;6.00;;
34639;SDS011;22600;48.186;11.526;2022-08-25T02:28:57;7.85;;;5.85;;
34639;SDS011;22600;48.186;11.526;2022-08-25T02:31:23;6.93;;;5.35;;
34639;SDS011;22600;48.186;11.526;2022-08-25T02:33:50;7.18;;;5.53;;
34639;SDS011;22600;48.186;11.526;2022-08-25T02:36:16;7.88;;;5.78;;
34639;SDS011;22600;48.186;11.526;2022-08-25T02:38:42;7.45;;;4.97;;
34639;SDS011;22600;48.186;11.526;2022-08-25T02:41:09;7.13;;;5.40;;
34639;SDS011;22600;48.186;11.526;2022-08-25T02:43:40;7.90;;;6.20;;
34639;SDS011;22600;48.186;11.526;2022-08-25T02:46:07;7.63;;;5.63;;
34639;SDS011;22600;48.186;11.526;2022-08-25T02:48:33;7.20;;;5.53;;
34639;SDS011;22600;48.186;11.526;2022-08-25T02:50:59;7.85;;;5.45;;
34639;SDS011;22600;48.186;11.526;2022-08-25T02:53:26;9.20;;;5.82;;
34639;SDS011;22600;48.186;11.526;2022-08-25T02:55:53;7.05;;;5.70;;
34639;SDS011;22600;48.186;11.526;2022-08-25T02:58:19;8.55;;;5.70;;
34639;SDS011;22600;48.186;11.526;2022-08-25T03:00:45;7.10;;;5.43;;
34639;SDS011;22600;48.186;11.526;2022-08-25T03:03:12;8.88;;;6.07;;
34639;SDS011;22600;48.186;11.526;2022-08-25T03:05:39;8.70;;;5.90;;
34639;SDS011;22600;48.186;11.526;2022-08-25T03:08:05;7.55;;;5.72;;
34639;SDS011;22600;48.186;11.526;2022-08-25T03:10:31;8.13;;;5.75;;
34639;SDS011;22600;48.186;11.526;2022-08-25T03:12:56;7.38;;;5.63;;
34639;SDS011;22600;48.186;11.526;2022-08-25T03:15:22;7.20;;;5.70;;
34639;SDS011;22600;48.186;11.526;2022-08-25T03:17:50;6.55;;;5.30;;
34639;SDS011;22600;48.186;11.526;2022-08-25T03:20:16;7.10;;;5.47;;
34639;SDS011;22600;48.186;11.526;2022-08-25T03:22:42;6.97;;;5.30;;
34639;SDS011;22600;48.186;11.526;2022-08-25T03:25:08;8.18;;;6.25;;
34639;SDS011;22600;48.186;11.526;2022-08-25T03:27:53;8.23;;;5.95;;
34639;SDS011;22600;48.186;11.526;2022-08-25T03:30:18;10.02;;;6.82;;
34639;SDS011;22600;48.186;11.526;2022-08-25T03:32:44;9.50;;;6.70;;
34639;SDS011;22600;48.186;11.526;2022-08-25T03:35:10;8.52;;;6.75;;
34639;SDS011;22600;48.186;11.526;2022-08-25T03:37:36;8.57;;;6.53;;
34639;SDS011;22600;48.186;11.526;2022-08-25T03:40:03;8.38;;;6.45;;
34639;SDS011;22600;48.186;11.526;2022-08-25T03:42:31;10.10;;;6.70;;
34639;SDS011;22600;48.186;11.526;2022-08-25T03:44:57;8.90;;;6.60;;
34639;SDS011;22600;48.186;11.526;2022-08-25T03:47:23;8.30;;;6.13;;
34639;SDS011;22600;48.186;11.526;2022-08-25T03:49:50;7.47;;;5.85;;
34639;SDS011;22600;48.186;11.526;2022-08-25T03:52:16;7.43;;;5.80;;
34639;SDS011;22600;48.186;11.526;2022-08-25T03:54:42;9.02;;;6.63;;
34639;SDS011;22600;48.186;11.526;2022-08-25T03:57:08;7.70;;;6.07;;
34639;SDS011;22600;48.186;11.526;2022-08-25T03:59:35;7.25;;;5.70;;
34639;SDS011;22600;48.186;11.526;2022-08-25T04:02:02;8.77;;;6.00;;
34639;SDS011;22600;48.186;11.526;2022-08-25T04:04:29;8.40;;;5.88;;
34639;SDS011;22600;48.186;11.526;2022-08-25T04:06:55;7.65;;;5.80;;
34639;SDS011;22600;48.186;11.526;2022-08-25T04:09:22;7.43;;;5.93;;
34639;SDS011;22600;48.186;11.526;2022-08-25T04:11:47;8.02;;;6.28;;
34639;SDS011;22600;48.186;11.526;2022-08-25T04:14:13;8.85;;;5.97;;
34639;SDS011;22600;48.186;11.526;2022-08-25T04:16:39;7.75;;;5.78;;
34639;SDS011;22600;48.186;11.526;2022-08-25T04:19:05;7.13;;;5.85;;
34639;SDS011;22600;48.186;11.526;2022-08-25T04:21:33;7.22;;;5.72;;
34639;SDS011;22600;48.186;11.526;2022-08-25T04:24:04;7.05;;;5.75;;
34639;SDS011;22600;48.186;11.526;2022-08-25T04:26:32;7.82;;;5.43;;
34639;SDS011;22600;48.186;11.526;2022-08-25T04:29:01;6.68;;;5.60;;
34639;SDS011;22600;48.186;11.526;2022-08-25T04:31:28;7.15;;;5.88;;
34639;SDS011;22600;48.186;11.526;2022-08-25T04:33:55;6.78;;;5.53;;
34639;SDS011;22600;48.186;11.526;2022-08-25T04:36:21;7.72;;;6.15;;
34639;SDS011;22600;48.186;11.526;2022-08-25T04:38:47;8.93;;;6.22;;
34639;SDS011;22600;48.186;11.526;2022-08-25T04:41:14;7.95;;;5.93;;
34639;SDS011;22600;48.186;11.526;2022-08-25T04:43:42;9.73;;;6.70;;
34639;SDS011;22600;48.186;11.526;2022-08-25T04:46:13;10.02;;;7.63;;
34639;SDS011;22600;48.186;11.526;2022-08-25T04:48:41;10.18;;;7.32;;
34639;SDS011;22600;48.186;11.526;2022-08-25T04:51:09;12.57;;;7.97;;
34639;SDS011;22600;48.186;11.526;2022-08-25T04:53:36;11.07;;;8.13;;
34639;SDS011;22600;48.186;11.526;2022-08-25T04:56:06;9.30;;;7.30;;
34639;SDS011;22600;48.186;11.526;2022-08-25T04:58:34;9.43;;;7.32;;
34639;SDS011;22600;48.186;11.526;2022-08-25T05:01:06;9.70;;;6.93;;
34639;SDS011;22600;48.186;11.526;2022-08-25T05:03:34;9.05;;;6.95;;
34639;SDS011;22600;48.186;11.526;2022-08-25T05:06:00;9.90;;;7.50;;
34639;SDS011;22600;48.186;11.526;2022-08-25T05:08:27;13.02;;;8.52;;
34639;SDS011;22600;48.186;11.526;2022-08-25T05:10:52;12.00;;;8.18;;
34639;SDS011;22600;48.186;11.526;2022-08-25T05:13:20;13.82;;;9.27;;
34639;SDS011;22600;48.186;11.526;2022-08-25T05:15:53;13.15;;;9.05;;
34639;SDS011;22600;48.186;11.526;2022-08-25T05:18:21;14.05;;;9.10;;
34639;SDS011;22600;48.186;11.526;2022-08-25T05:20:49;12.55;;;8.48;;
34639;SDS011;22600;48.186;11.526;2022-08-25T05:23:17;11.75;;;8.50;;
34639;SDS011;22600;48.186;11.526;2022-08-25T05:25:44;12.95;;;9.00;;
34639;SDS011;22600;48.186;11.526;2022-08-25T05:28:09;12.20;;;8.40;;
34639;SDS011;22600;48.186;11.526;2022-08-25T05:30:38;12.40;;;8.40;;
34639;SDS011;22600;48.186;11.526;2022-08-25T05:33:05;12.30;;;8.30;;
34639;SDS011;22600;48.186;11.526;2022-08-25T05:35:31;10.90;;;7.90;;
34639;SDS011;22600;48.186;11.526;2022-08-25T05:37:57;12.57;;;8.20;;
34639;SDS011;22600;48.186;11.526;2022-08-25T05:40:23;12.25;;;8.27;;
34639;SDS011;22600;48.186;11.526;2022-08-25T05:42:49;12.25;;;8.30;;
34639;SDS011;22600;48.186;11.526;2022-08-25T05:45:14;12.15;;;8.20;;
34639;SDS011;22600;48.186;11.526;2022-08-25T05:47:41;12.30;;;8.18;;
34639;SDS011;22600;48.186;11.526;2022-08-25T05:50:07;11.40;;;8.20;;
34639;SDS011;22600;48.186;11.526;2022-08-25T05:52:33;10.70;;;7.65;;
34639;SDS011;22600;48.186;11.526;2022-08-25T05:54:59;11.02;;;7.85;;
34639;SDS011;22600;48.186;11.526;2022-08-25T05:57:25;11.70;;;7.97;;
34639;SDS011;22600;48.186;11.526;2022-08-25T05:59:51;10.55;;;7.60;;
34639;SDS011;22600;48.186;11.526;2022-08-25T06:02:16;12.05;;;8.07;;
34639;SDS011;22600;48.186;11.526;2022-08-25T06:05:00;11.10;;;7.97;;
34639;SDS011;22600;48.186;11.526;2022-08-25T06:07:26;9.88;;;7.57;;
34639;SDS011;22600;48.186;11.526;2022-08-25T06:09:51;10.70;;;7.88;;
34639;SDS011;22600;48.186;11.526;2022-08-25T06:12:18;10.15;;;7.40;;
34639;SDS011;22600;48.186;11.526;2022-08-25T06:14:45;9.23;;;7.07;;
34639;SDS011;22600;48.186;11.526;2022-08-25T06:17:12;10.77;;;7.18;;
34639;SDS011;22600;48.186;11.526;2022-08-25T06:19:37;11.55;;;7.72;;
34639;SDS011;22600;48.186;11.526;2022-08-25T06:22:03;11.02;;;7.30;;
34639;SDS011;22600;48.186;11.526;2022-08-25T06:24:29;9.68;;;7.22;;
34639;SDS011;22600;48.186;11.526;2022-08-25T06:26:55;10.00;;;7.15;;
34639;SDS011;22600;48.186;11.526;2022-08-25T06:29:20;10.07;;;7.43;;
34639;SDS011;22600;48.186;11.526;2022-08-25T06:31:46;9.93;;;7.38;;
34639;SDS011;22600;48.186;11.526;2022-08-25T06:34:13;11.63;;;7.63;;
34639;SDS011;22600;48.186;11.526;2022-08-25T06:36:40;11.02;;;7.60;;
34639;SDS011;22600;48.186;11.526;2022-08-25T06:39:06;10.80;;;7.60;;
34639;SDS011;22600;48.186;11.526;2022-08-25T06:41:32;10.68;;;7.18;;
34639;SDS011;22600;48.186;11.526;2022-08-25T06:43:57;10.05;;;7.43;;
34639;SDS011;22600;48.186;11.526;2022-08-25T06:46:24;10.10;;;7.05;;
34639;SDS011;22600;48.186;11.526;2022-08-25T06:48:51;9.52;;;7.07;;
34639;SDS011;22600;48.186;11.526;2022-08-25T06:51:18;8.93;;;6.63;;
34639;SDS011;22600;48.186;11.526;2022-08-25T06:53:45;9.57;;;7.00;;
34639;SDS011;22600;48.186;11.526;2022-08-25T06:56:12;18.60;;;8.32;;
34639;SDS011;22600;48.186;11.526;2022-08-25T06:58:39;21.67;;;9.63;;
34639;SDS011;22600;48.186;11.526;2022-08-25T07:01:07;17.40;;;8.98;;
34639;SDS011;22600;48.186;11.526;2022-08-25T07:03:32;11.75;;;7.45;;
34639;SDS011;22600;48.186;11.526;2022-08-25T07:05:58;18.70;;;7.65;;
34639;SDS011;22600;48.186;11.526;2022-08-25T07:08:24;14.25;;;7.68;;
34639;SDS011;22600;48.186;11.526;2022-08-25T07:10:50;10.40;;;7.38;;
34639;SDS011;22600;48.186;11.526;2022-08-25T07:13:16;10.82;;;7.15;;
34639;SDS011;22600;48.186;11.526;2022-08-25T07:15:41;12.95;;;7.40;;
34639;SDS011;22600;48.186;11.526;2022-08-25T07:18:08;9.90;;;6.93;;
34639;SDS011;22600;48.186;11.526;2022-08-25T07:20:35;9.55;;;7.10;;
34639;SDS011;22600;48.186;11.526;2022-08-25T07:23:03;11.02;;;6.88;;
34639;SDS011;22600;48.186;11.526;2022-08-25T07:25:29;9.10;;;6.35;;
34639;SDS011;22600;48.186;11.526;2022-08-25T07:27:54;9.43;;;6.55;;
34639;SDS011;22600;48.186;11.526;2022-08-25T07:30:21;10.10;;;6.78;;
34639;SDS011;22600;48.186;11.526;2022-08-25T07:32:47;10.05;;;6.88;;
34639;SDS011;22600;48.186;11.526;2022-08-25T07:35:12;10.98;;;7.20;;
34639;SDS011;22600;48.186;11.526;2022-08-25T07:37:44;10.13;;;6.28;;
34639;SDS011;22600;48.186;11.526;2022-08-25T07:40:13;8.48;;;6.57;;
34639;SDS011;22600;48.186;11.526;2022-08-25T07:42:45;10.70;;;6.45;;
34639;SDS011;22600;48.186;11.526;2022-08-25T07:45:10;9.73;;;6.97;;
34639;SDS011;22600;48.186;11.526;2022-08-25T07:47:37;8.38;;;6.18;;
34639;SDS011;22600;48.186;11.526;2022-08-25T07:50:05;9.32;;;6.38;;
34639;SDS011;22600;48.186;11.526;2022-08-25T07:52:32;11.20;;;6.53;;
34639;SDS011;22600;48.186;11.526;2022-08-25T07:54:57;9.27;;;6.45;;
34639;SDS011;22600;48.186;11.526;2022-08-25T07:57:23;9.40;;;6.70;;
34639;SDS011;22600;48.186;11.526;2022-08-25T07:59:50;8.52;;;6.35;;
34639;SDS011;22600;48.186;11.526;2022-08-25T08:02:16;8.73;;;6.75;;
34639;SDS011;22600;48.186;11.526;2022-08-25T08:04:41;9.23;;;6.47;;
34639;SDS011;22600;48.186;11.526;2022-08-25T08:07:09;9.38;;;6.20;;
34639;SDS011;22600;48.186;11.526;2022-08-25T08:09:35;9.52;;;6.50;;
34639;SDS011;22600;48.186;11.526;2022-08-25T08:12:02;10.65;;;6.63;;
34639;SDS011;22600;48.186;11.526;2022-08-25T08:14:29;9.85;;;6.18;;
34639;SDS011;22600;48.186;11.526;2022-08-25T08:16:55;9.32;;;6.38;;
34639;SDS011;22600;48.186;11.526;2022-08-25T08:19:21;9.68;;;6.63;;
34639;SDS011;22600;48.186;11.526;2022-08-25T08:21:47;8.23;;;6.10;;
34639;SDS011;22600;48.186;11.526;2022-08-25T08:24:13;8.85;;;6.25;;
34639;SDS011;22600;48.186;11.526;2022-08-25T08:26:39;10.15;;;6.63;;
34639;SDS011;22600;48.186;11.526;2022-08-25T08:29:04;8.85;;;6.15;;
34639;SDS011;22600;48.186;11.526;2022-08-25T08:31:30;9.10;;;6.47;;
34639;SDS011;22600;48.186;11.526;2022-08-25T08:33:56;7.63;;;5.75;;
34639;SDS011;22600;48.186;11.526;2022-08-25T08:36:22;8.23;;;6.65;;
34639;SDS011;22600;48.186;11.526;2022-08-25T08:38:49;8.68;;;6.07;;
34639;SDS011;22600;48.186;11.526;2022-08-25T08:44:14;8.80;;;6.40;;
34639;SDS011;22600;48.186;11.526;2022-08-25T08:52:55;8.65;;;5.63;;
34639;SDS011;22600;48.186;11.526;2022-08-25T08:57:54;8.65;;;6.05;;
34639;SDS011;22600;48.186;11.526;2022-08-25T09:00:23;8.43;;;5.70;;
34639;SDS011;22600;48.186;11.526;2022-08-25T09:03:02;10.63;;;6.60;;
34639;SDS011;22600;48.186;11.526;2022-08-25T09:05:31;10.75;;;6.53;;
34639;SDS011;22600;48.186;11.526;2022-08-25T09:08:04;9.13;;;6.22;;
34639;SDS011;22600;48.186;11.526;2022-08-25T09:10:39;8.95;;;6.10;;
34639;SDS011;22600;48.186;11.526;2022-08-25T09:13:46;8.70;;;6.18;;
34639;SDS011;22600;48.186;11.526;2022-08-25T09:16:18;8.02;;;6.25;;
34639;SDS011;22600;48.186;11.526;2022-08-25T09:19:16;8.40;;;6.05;;
34639;SDS011;22600;48.186;11.526;2022-08-25T09:25:13;10.40;;;6.97;;
34639;SDS011;22600;48.186;11.526;2022-08-25T09:28:03;7.38;;;5.63;;
34639;SDS011;22600;48.186;11.526;2022-08-25T09:30:42;7.65;;;5.68;;
34639;SDS011;22600;48.186;11.526;2022-08-25T09:33:16;7.88;;;6.10;;
34639;SDS011;22600;48.186;11.526;2022-08-25T09:35:44;8.15;;;5.60;;
34639;SDS011;22600;48.186;11.526;2022-08-25T09:38:12;8.50;;;6.00;;
34639;SDS011;22600;48.186;11.526;2022-08-25T09:40:39;7.93;;;5.22;;
34639;SDS011;22600;48.186;11.526;2022-08-25T09:43:23;7.65;;;5.57;;
34639;SDS011;22600;48.186;11.526;2022-08-25T09:48:47;8.18;;;5.40;;
34639;SDS011;22600;48.186;11.526;2022-08-25T09:54:02;7.13;;;5.20;;
34639;SDS011;22600;48.186;11.526;2022-08-25T09:56:56;7.43;;;5.53;;
34639;SDS011;22600;48.186;11.526;2022-08-25T09:59:27;7.25;;;5.57;;
34639;SDS011;22600;48.186;11.526;2022-08-25T10:01:59;8.77;;;5.32;;
34639;SDS011;22600;48.186;11.526;2022-08-25T10:04:27;7.22;;;5.20;;
34639;SDS011;22600;48.186;11.526;2022-08-25T10:06:56;7.53;;;5.78;;
34639;SDS011;22600;48.186;11.526;2022-08-25T10:11:54;24.92;;;11.68;;
34639;SDS011;22600;48.186;11.526;2022-08-25T10:16:49;75.68;;;18.10;;
34639;SDS011;22600;48.186;11.526;2022-08-25T10:21:42;18.88;;;10.13;;
34639;SDS011;22600;48.186;11.526;2022-08-25T10:24:09;9.60;;;6.10;;
34639;SDS011;22600;48.186;11.526;2022-08-25T10:26:56;8.25;;;5.70;;
34639;SDS011;22600;48.186;11.526;2022-08-25T10:29:52;8.50;;;5.82;;
34639;SDS011;22600;48.186;11.526;2022-08-25T10:35:37;7.07;;;5.68;;
34639;SDS011;22600;48.186;11.526;2022-08-25T10:38:36;9.35;;;5.75;;
34639;SDS011;22600;48.186;11.526;2022-08-25T10:43:52;8.02;;;5.45;;
34639;SDS011;22600;48.186;11.526;2022-08-25T10:46:58;7.40;;;5.40;;
34639;SDS011;22600;48.186;11.526;2022-08-25T10:50:32;6.60;;;5.35;;
34639;SDS011;22600;48.186;11.526;2022-08-25T11:00:48;7.78;;;5.57;;
34639;SDS011;22600;48.186;11.526;2022-08-25T11:06:13;7.82;;;5.55;;
34639;SDS011;22600;48.186;11.526;2022-08-25T11:08:45;8.63;;;5.68;;
34639;SDS011;22600;48.186;11.526;2022-08-25T11:14:10;8.25;;;5.60;;
34639;SDS011;22600;48.186;11.526;2022-08-25T11:16:51;7.22;;;5.30;;
34639;SDS011;22600;48.186;11.526;2022-08-25T11:19:38;7.45;;;5.43;;
34639;SDS011;22600;48.186;11.526;2022-08-25T11:24:43;6.53;;;5.25;;
34639;SDS011;22600;48.186;11.526;2022-08-25T11:27:14;7.03;;;5.53;;
34639;SDS011;22600;48.186;11.526;2022-08-25T11:29:48;7.32;;;5.50;;
34639;SDS011;22600;48.186;11.526;2022-08-25T11:32:36;8.10;;;5.78;;
34639;SDS011;22600;48.186;11.526;2022-08-25T11:35:07;7.70;;;5.43;;
34639;SDS011;22600;48.186;11.526;2022-08-25T11:37:37;14.70;;;6.95;;
34639;SDS011;22600;48.186;11.526;2022-08-25T11:40:31;11.82;;;6.28;;
34639;SDS011;22600;48.186;11.526;2022-08-25T11:46:05;8.13;;;5.90;;
34639;SDS011;22600;48.186;11.526;2022-08-25T11:51:45;8.10;;;5.38;;
34639;SDS011;22600;48.186;11.526;2022-08-25T11:54:15;7.40;;;5.28;;
34639;SDS011;22600;48.186;11.526;2022-08-25T11:56:53;7.38;;;5.50;;
34639;SDS011;22600;48.186;11.526;2022-08-25T12:10:13;6.90;;;5.47;;
34639;SDS011;22600;48.186;11.526;2022-08-25T12:15:19;6.68;;;5.20;;
34639;SDS011;22600;48.186;11.526;2022-08-25T12:18:14;8.10;;;5.60;;
34639;SDS011;22600;48.186;11.526;2022-08-25T12:26:50;6.03;;;4.90;;
34639;SDS011;22600;48.186;11.526;2022-08-25T12:35:02;8.98;;;5.53;;
34639;SDS011;22600;48.186;11.526;2022-08-25T12:40:28;9.23;;;5.18;;
34639;SDS011;22600;48.186;11.526;2022-08-25T12:43:02;8.13;;;5.32;;
34639;SDS011;22600;48.186;11.526;2022-08-25T12:45:39;8.02;;;5.63;;
34639;SDS011;22600;48.186;11.526;2022-08-25T12:48:38;9.65;;;5.85;;
34639;SDS011;22600;48.186;11.526;2022-08-25T12:51:05;8.48;;;5.30;;
34639;SDS011;22600;48.186;11.526;2022-08-25T12:53:41;9.40;;;5.43;;
34639;SDS011;22600;48.186;11.526;2022-08-25T12:56:19;8.25;;;5.40;;
34639;SDS011;22600;48.186;11.526;2022-08-25T12:59:10;8.60;;;5.10;;
34639;SDS011;22600;48.186;11.526;2022-08-25T13:02:03;8.32;;;5.20;;
34639;SDS011;22600;48.186;11.526;2022-08-25T13:05:00;7.22;;;5.05;;
34639;SDS011;22600;48.186;11.526;2022-08-25T13:13:05;7.82;;;5.22;;
34639;SDS011;22600;48.186;11.526;2022-08-25T13:16:01;6.53;;;4.80;;
34639;SDS011;22600;48.186;11.526;2022-08-25T13:18:31;7.22;;;5.18;;
34639;SDS011;22600;48.186;11.526;2022-08-25T13:21:07;22.17;;;8.75;;
34639;SDS011;22600;48.186;11.526;2022-08-25T13:23:57;28.35;;;10.85;;
34639;SDS011;22600;48.186;11.526;2022-08-25T13:31:21;15.43;;;6.18;;
34639;SDS011;22600;48.186;11.526;2022-08-25T13:33:56;9.15;;;5.10;;
34639;SDS011;22600;48.186;11.526;2022-08-25T13:36:27;8.60;;;5.38;;
34639;SDS011;22600;48.186;11.526;2022-08-25T13:39:23;8.75;;;5.25;;
34639;SDS011;22600;48.186;11.526;2022-08-25T13:41:52;9.05;;;5.65;;
34639;SDS011;22600;48.186;11.526;2022-08-25T13:44:20;7.57;;;5.07;;
34639;SDS011;22600;48.186;11.526;2022-08-25T13:46:57;7.40;;;4.60;;
34639;SDS011;22600;48.186;11.526;2022-08-25T13:49:33;7.40;;;4.70;;
34639;SDS011;22600;48.186;11.526;2022-08-25T13:52:00;7.40;;;5.10;;
34639;SDS011;22600;48.186;11.526;2022-08-25T13:54:30;6.55;;;4.97;;
34639;SDS011;22600;48.186;11.526;2022-08-25T13:59:42;7.65;;;5.15;;
34639;SDS011;22600;48.186;11.526;2022-08-25T14:02:13;6.60;;;4.72;;
34639;SDS011;22600;48.186;11.526;2022-08-25T14:05:04;7.15;;;5.13;;
34639;SDS011;22600;48.186;11.526;2022-08-25T14:07:30;6.35;;;4.95;;
34639;SDS011;22600;48.186;11.526;2022-08-25T14:10:02;6.35;;;4.70;;
34639;SDS011;22600;48.186;11.526;2022-08-25T14:15:05;7.93;;;5.00;;
34639;SDS011;22600;48.186;11.526;2022-08-25T14:18:00;5.30;;;4.40;;
34639;SDS011;22600;48.186;11.526;2022-08-25T14:20:46;5.85;;;4.47;;
34639;SDS011;22600;48.186;11.526;2022-08-25T14:23:17;6.53;;;4.68;;
34639;SDS011;22600;48.186;11.526;2022-08-25T14:25:45;6.18;;;4.82;;
34639;SDS011;22600;48.186;11.526;2022-08-25T14:28:14;6.43;;;4.82;;
34639;SDS011;22600;48.186;11.526;2022-08-25T14:30:43;6.18;;;4.70;;
34639;SDS011;22600;48.186;11.526;2022-08-25T14:33:13;6.13;;;4.60;;
34639;SDS011;22600;48.186;11.526;2022-08-25T14:35:42;7.32;;;4.85;;
34639;SDS011;22600;48.186;11.526;2022-08-25T14:38:11;7.07;;;4.55;;
34639;SDS011;22600;48.186;11.526;2022-08-25T14:40:36;6.75;;;5.05;;
34639;SDS011;22600;48.186;11.526;2022-08-25T14:43:03;6.13;;;4.50;;
34639;SDS011;22600;48.186;11.526;2022-08-25T14:45:30;7.40;;;4.60;;
34639;SDS011;22600;48.186;11.526;2022-08-25T14:47:55;5.90;;;4.72;;
34639;SDS011;22600;48.186;11.526;2022-08-25T14:50:29;6.63;;;4.78;;
34639;SDS011;22600;48.186;11.526;2022-08-25T14:52:54;6.43;;;4.20;;
34639;SDS011;22600;48.186;11.526;2022-08-25T14:55:20;6.80;;;5.00;;
34639;SDS011;22600;48.186;11.526;2022-08-25T14:57:46;6.60;;;4.82;;
34639;SDS011;22600;48.186;11.526;2022-08-25T15:00:11;6.55;;;4.47;;
34639;SDS011;22600;48.186;11.526;2022-08-25T15:02:38;5.75;;;4.45;;
34639;SDS011;22600;48.186;11.526;2022-08-25T15:05:06;6.00;;;4.57;;
34639;SDS011;22600;48.186;11.526;2022-08-25T15:07:36;6.05;;;4.65;;
34639;SDS011;22600;48.186;11.526;2022-08-25T15:10:21;5.90;;;4.60;;
34639;SDS011;22600;48.186;11.526;2022-08-25T15:12:47;6.60;;;4.55;;
34639;SDS011;22600;48.186;11.526;2022-08-25T15:15:13;5.90;;;4.75;;
34639;SDS011;22600;48.186;11.526;2022-08-25T15:17:39;5.55;;;4.32;;
34639;SDS011;22600;48.186;11.526;2022-08-25T15:20:06;6.47;;;4.47;;
34639;SDS011;22600;48.186;11.526;2022-08-25T15:22:32;6.40;;;4.55;;
34639;SDS011;22600;48.186;11.526;2022-08-25T15:24:58;6.00;;;4.53;;
34639;SDS011;22600;48.186;11.526;2022-08-25T15:27:23;7.22;;;4.47;;
34639;SDS011;22600;48.186;11.526;2022-08-25T15:29:49;5.90;;;4.22;;
34639;SDS011;22600;48.186;11.526;2022-08-25T15:32:15;6.55;;;4.43;;
34639;SDS011;22600;48.186;11.526;2022-08-25T15:34:41;5.68;;;4.32;;
34639;SDS011;22600;48.186;11.526;2022-08-25T15:37:07;6.50;;;4.57;;
34639;SDS011;22600;48.186;11.526;2022-08-25T15:39:39;6.40;;;4.60;;
34639;SDS011;22600;48.186;11.526;2022-08-25T15:42:07;5.82;;;4.38;;
34639;SDS011;22600;48.186;11.526;2022-08-25T15:44:34;6.32;;;4.82;;
34639;SDS011;22600;48.186;11.526;2022-08-25T15:47:00;6.50;;;4.78;;
34639;SDS011;22600;48.186;11.526;2022-08-25T15:49:26;6.00;;;4.60;;
34639;SDS011;22600;48.186;11.526;2022-08-25T15:51:52;6.00;;;4.50;;
34639;SDS011;22600;48.186;11.526;2022-08-25T15:54:19;5.75;;;4.30;;
34639;SDS011;22600;48.186;11.526;2022-08-25T15:56:49;6.13;;;4.40;;
34639;SDS011;22600;48.186;11.526;2022-08-25T15:59:15;6.57;;;4.43;;
34639;SDS011;22600;48.186;11.526;2022-08-25T16:01:41;7.47;;;4.47;;
34639;SDS011;22600;48.186;11.526;2022-08-25T16:04:10;4.20;;;3.78;;
34639;SDS011;22600;48.186;11.526;2022-08-25T16:06:36;5.68;;;4.38;;
34639;SDS011;22600;48.186;11.526;2022-08-25T16:09:03;6.30;;;4.53;;
34639;SDS011;22600;48.186;11.526;2022-08-25T16:11:30;5.35;;;4.30;;
34639;SDS011;22600;48.186;11.526;2022-08-25T16:13:57;6.00;;;4.47;;
34639;SDS011;22600;48.186;11.526;2022-08-25T16:16:24;5.18;;;4.18;;
34639;SDS011;22600;48.186;11.526;2022-08-25T16:18:51;5.47;;;4.45;;
34639;SDS011;22600;48.186;11.526;2022-08-25T16:21:19;5.80;;;4.20;;
34639;SDS011;22600;48.186;11.526;2022-08-25T16:23:49;6.18;;;4.55;;
34639;SDS011;22600;48.186;11.526;2022-08-25T16:26:17;5.50;;;4.38;;
34639;SDS011;22600;48.186;11.526;2022-08-25T16:28:43;5.80;;;4.47;;
34639;SDS011;22600;48.186;11.526;2022-08-25T16:31:10;6.10;;;4.63;;